Time;durP1;ratioP1;P1;durP2;ratioP2;P2;SDS_P1;SDS_P2;PMS_P1;PMS_P2;Temp;Humidity;BMP_temperature;BMP_pressure;BME280_temperature;BME280_humidity;BME280_pressure;Samples;Min_cycle;Max_cycle;Signal;HPM_P1;HPM_P2
2023/05/27 00:01:07;;;;;;;16.00;7.10;;;9.50;1.00;;;;;;5037525;28;20962;-62
2023/05/27 00:03:34;;;;;;;17.50;7.57;;;9.50;1.00;;;;;;5037278;28;20455;-61
2023/05/27 00:06:03;;;;;;;17.63;6.70;;;9.50;1.00;;;;;;5037048;28;20532;-61
2023/05/27 00:08:30;;;;;;;22.80;6.90;;;9.40;1.00;;;;;;5026351;28;20479;-62
2023/05/27 00:10:57;;;;;;;16.33;6.93;;;9.40;1.00;;;;;;5028529;28;20545;-61
2023/05/27 00:13:25;;;;;;;13.60;7.00;;;9.40;1.00;;;;;;5025815;28;20488;-62
2023/05/27 00:15:52;;;;;;;12.73;7.30;;;9.30;1.00;;;;;;5023509;28;20474;-62
2023/05/27 00:18:19;;;;;;;20.73;7.27;;;9.20;1.00;;;;;;5019024;28;20914;-62
2023/05/27 00:20:46;;;;;;;15.20;6.33;;;9.20;1.00;;;;;;5017403;28;20466;-62
2023/05/27 00:23:16;;;;;;;17.70;8.00;;;9.20;1.00;;;;;;5017897;28;20439;-61
2023/05/27 00:25:43;;;;;;;15.60;6.63;;;9.10;1.00;;;;;;5017479;28;20769;-62
2023/05/27 00:28:11;;;;;;;19.07;9.80;;;9.10;6.00;;;;;;5017893;28;20518;-61
2023/05/27 00:30:38;;;;;;;16.17;7.40;;;9.10;16.40;;;;;;5017948;28;20441;-61
2023/05/27 00:33:05;;;;;;;24.40;7.40;;;9.00;58.30;;;;;;5030041;28;20474;-62
2023/05/27 00:35:32;;;;;;;10.83;6.40;;;9.00;48.60;;;;;;5026140;28;20782;-61
2023/05/27 00:38:00;;;;;;;19.27;6.97;;;8.90;66.50;;;;;;5026989;28;20454;-61
2023/05/27 00:40:31;;;;;;;15.57;7.33;;;8.90;99.90;;;;;;5056545;28;20458;-62
2023/05/27 00:42:58;;;;;;;18.30;7.77;;;8.80;99.90;;;;;;5056324;28;20469;-62
2023/05/27 00:45:26;;;;;;;21.13;7.57;;;8.90;99.90;;;;;;5055359;28;20523;-61
2023/05/27 00:47:53;;;;;;;13.77;7.43;;;8.80;99.90;;;;;;5056249;28;20500;-61
2023/05/27 00:50:21;;;;;;;12.80;6.70;;;8.80;99.90;;;;;;5032895;28;20463;-62
2023/05/27 00:52:49;;;;;;;18.83;7.50;;;8.80;99.90;;;;;;5035286;28;20780;-62
2023/05/27 00:55:16;;;;;;;18.00;8.30;;;8.70;99.90;;;;;;5036057;28;20495;-62
2023/05/27 00:57:44;;;;;;;21.00;6.67;;;8.70;99.90;;;;;;5036044;28;20950;-62
2023/05/27 01:00:13;;;;;;;11.13;6.57;;;8.60;99.90;;;;;;5035779;28;20463;-62
2023/05/27 01:02:42;;;;;;;17.07;8.03;;;8.60;99.90;;;;;;5035431;28;20900;-62
2023/05/27 01:05:10;;;;;;;20.83;7.07;;;8.60;99.90;;;;;;5036136;28;20492;-61
2023/05/27 01:07:50;;;;;;;16.80;7.23;;;8.60;99.90;;;;;;5036190;28;20771;-61
2023/05/27 01:10:24;;;;;;;17.00;6.30;;;8.50;99.90;;;;;;5036346;28;20467;-61
2023/05/27 01:13:00;;;;;;;14.07;6.80;;;8.50;99.90;;;;;;5033346;28;20577;-61
2023/05/27 01:15:28;;;;;;;17.80;6.67;;;8.50;99.90;;;;;;5036126;28;20500;-61
2023/05/27 01:17:57;;;;;;;17.80;7.03;;;8.50;99.90;;;;;;5035916;28;20471;-61
2023/05/27 01:20:25;;;;;;;17.23;7.60;;;8.50;99.90;;;;;;5035904;28;20463;-62
2023/05/27 01:22:54;;;;;;;14.27;6.90;;;8.50;99.90;;;;;;5026731;28;20480;-61
2023/05/27 01:25:21;;;;;;;15.30;7.07;;;8.40;99.90;;;;;;5026538;28;20549;-61
2023/05/27 01:27:49;;;;;;;17.07;7.97;;;8.30;99.90;;;;;;5021799;28;20805;-61
2023/05/27 01:30:17;;;;;;;12.70;6.87;;;8.40;99.90;;;;;;5021171;28;20559;-61
2023/05/27 01:32:51;;;;;;;14.47;7.43;;;8.30;99.90;;;;;;5022675;28;20478;-61
2023/05/27 01:35:22;;;;;;;25.67;8.30;;;8.30;99.90;;;;;;5022416;28;20797;-62
2023/05/27 01:37:52;;;;;;;18.80;7.83;;;8.30;99.90;;;;;;5022434;28;20479;-61
2023/05/27 01:40:22;;;;;;;17.63;7.47;;;8.30;99.90;;;;;;5024919;28;20452;-60
2023/05/27 01:42:49;;;;;;;20.47;8.70;;;8.30;99.90;;;;;;5022650;28;20567;-59
2023/05/27 01:45:17;;;;;;;24.20;7.60;;;8.20;99.90;;;;;;5024908;28;20903;-58
2023/05/27 01:47:44;;;;;;;19.20;7.77;;;8.20;99.90;;;;;;5023349;28;20506;-59
2023/05/27 01:50:12;;;;;;;14.77;7.23;;;8.10;99.90;;;;;;5013510;28;20468;-58
2023/05/27 01:52:39;;;;;;;19.73;7.43;;;8.10;1.00;;;;;;5023521;28;20443;-59
2023/05/27 01:55:07;;;;;;;19.03;7.73;;;8.10;99.90;;;;;;5023883;28;20977;-59
2023/05/27 01:57:36;;;;;;;21.20;8.23;;;8.10;99.90;;;;;;5026275;28;20875;-60
2023/05/27 02:00:07;;;;;;;15.10;6.83;;;8.00;1.00;;;;;;5029552;28;20482;-59
2023/05/27 02:02:34;;;;;;;17.47;7.63;;;8.00;1.00;;;;;;5028700;28;20464;-58
2023/05/27 02:05:01;;;;;;;16.03;7.73;;;7.90;1.00;;;;;;5036968;28;20462;-59
2023/05/27 02:07:28;;;;;;;16.00;7.23;;;7.90;1.00;;;;;;5039290;28;20840;-59
2023/05/27 02:09:56;;;;;;;16.73;7.83;;;7.90;1.00;;;;;;5039208;28;20463;-59
2023/05/27 02:12:23;;;;;;;20.40;8.07;;;7.90;1.00;;;;;;5039262;28;20956;-58
2023/05/27 02:14:52;;;;;;;20.70;7.60;;;7.90;1.00;;;;;;5039098;28;20556;-58
2023/05/27 02:17:19;;;;;;;18.90;7.50;;;7.90;1.00;;;;;;5040556;28;20845;-58
2023/05/27 02:19:47;;;;;;;18.60;7.97;;;7.90;1.00;;;;;;5039616;28;20820;-58
2023/05/27 02:22:14;;;;;;;18.83;7.93;;;7.90;1.00;;;;;;5038456;28;20442;-59
2023/05/27 02:24:41;;;;;;;14.50;8.20;;;7.80;1.00;;;;;;5038610;28;20967;-60
2023/05/27 02:27:08;;;;;;;19.07;8.43;;;7.80;1.00;;;;;;5038767;28;20549;-59
2023/05/27 02:29:36;;;;;;;18.93;7.00;;;7.80;1.00;;;;;;5038370;28;20913;-59
2023/05/27 02:32:05;;;;;;;18.17;7.73;;;7.70;1.00;;;;;;5038422;28;20474;-59
2023/05/27 02:34:36;;;;;;;16.93;8.40;;;7.70;1.00;;;;;;5039239;28;20490;-58
2023/05/27 02:37:04;;;;;;;18.63;8.07;;;7.60;1.00;;;;;;5040090;28;20769;-58
2023/05/27 02:39:31;;;;;;;12.70;7.40;;;7.60;1.00;;;;;;5040136;28;20448;-58
2023/05/27 02:41:58;;;;;;;23.77;8.60;;;7.60;1.00;;;;;;5040302;28;20553;-58
2023/05/27 02:44:25;;;;;;;16.80;7.70;;;7.60;1.00;;;;;;5039756;28;20459;-58
2023/05/27 02:46:52;;;;;;;20.30;7.90;;;7.60;1.00;;;;;;5039778;28;20545;-58
2023/05/27 02:49:21;;;;;;;15.27;8.57;;;7.50;14.70;;;;;;5040150;28;20528;-57
2023/05/27 02:51:48;;;;;;;15.00;7.40;;;7.50;25.30;;;;;;5040136;28;20433;-58
2023/05/27 02:54:15;;;;;;;18.70;8.80;;;7.50;99.90;;;;;;5039456;28;20796;-57
2023/05/27 02:56:42;;;;;;;21.00;7.90;;;7.50;99.90;;;;;;5039459;28;20467;-58
2023/05/27 02:59:10;;;;;;;18.63;7.47;;;7.50;97.90;;;;;;5039408;28;20532;-58
2023/05/27 03:01:37;;;;;;;14.87;8.70;;;7.50;99.90;;;;;;5039913;28;20558;-58
2023/05/27 03:04:04;;;;;;;19.03;8.83;;;7.50;99.90;;;;;;5039947;28;20784;-58
2023/05/27 03:06:32;;;;;;;20.53;7.80;;;7.50;99.90;;;;;;5039048;28;20469;-58
2023/05/27 03:09:00;;;;;;;20.80;8.80;;;7.50;99.90;;;;;;5039073;28;20466;-58
2023/05/27 03:11:28;;;;;;;17.93;8.17;;;7.50;99.90;;;;;;5039770;28;20467;-58
2023/05/27 03:13:55;;;;;;;16.23;8.70;;;7.40;99.90;;;;;;5039709;28;20483;-58
2023/05/27 03:16:22;;;;;;;23.60;9.90;;;7.40;99.90;;;;;;5039046;28;20468;-58
2023/05/27 03:18:50;;;;;;;14.20;9.40;;;7.30;99.90;;;;;;5039467;28;20455;-58
2023/05/27 03:21:17;;;;;;;24.10;9.33;;;7.30;99.90;;;;;;5039251;28;20459;-58
2023/05/27 03:23:46;;;;;;;23.60;9.73;;;7.20;99.90;;;;;;5039551;28;20558;-58
2023/05/27 03:26:13;;;;;;;16.87;9.47;;;7.20;99.90;;;;;;5039163;28;20444;-58
2023/05/27 03:28:40;;;;;;;25.23;8.97;;;7.20;99.90;;;;;;5038815;28;20784;-58
2023/05/27 03:31:08;;;;;;;14.20;8.60;;;7.20;99.90;;;;;;5039444;28;20853;-58
2023/05/27 03:33:35;;;;;;;18.77;8.70;;;7.20;99.90;;;;;;5039164;28;20470;-57
2023/05/27 03:36:03;;;;;;;16.10;8.63;;;7.20;99.90;;;;;;5039351;28;20470;-57
2023/05/27 03:38:30;;;;;;;16.77;9.37;;;7.20;99.90;;;;;;5038644;28;20912;-58
2023/05/27 03:40:58;;;;;;;18.33;8.83;;;7.20;99.90;;;;;;5038669;28;20820;-57
2023/05/27 03:43:26;;;;;;;21.90;10.47;;;7.20;99.90;;;;;;5039083;28;20936;-58
2023/05/27 03:45:53;;;;;;;16.23;9.20;;;7.20;99.90;;;;;;5038899;28;20467;-58
2023/05/27 03:48:20;;;;;;;14.40;7.73;;;7.20;99.90;;;;;;5038774;28;20559;-57
2023/05/27 03:50:47;;;;;;;16.53;8.13;;;7.20;99.90;;;;;;5038690;28;20557;-57
2023/05/27 03:53:15;;;;;;;14.03;8.90;;;7.20;99.90;;;;;;5038905;28;20470;-58
2023/05/27 03:55:42;;;;;;;17.70;8.80;;;7.20;1.00;;;;;;5038524;28;20501;-58
2023/05/27 03:58:13;;;;;;;13.90;8.90;;;7.20;99.90;;;;;;5039026;28;20459;-58
2023/05/27 04:00:41;;;;;;;22.03;9.67;;;7.20;1.00;;;;;;5038594;28;20470;-58
2023/05/27 04:03:08;;;;;;;19.47;8.83;;;7.20;1.00;;;;;;5038339;28;20471;-58
2023/05/27 04:05:36;;;;;;;22.80;9.43;;;7.20;99.90;;;;;;5038816;28;20467;-58
2023/05/27 04:08:04;;;;;;;15.70;9.40;;;7.20;1.00;;;;;;5038698;28;20563;-58
2023/05/27 04:10:31;;;;;;;18.30;8.60;;;7.20;1.00;;;;;;5037885;28;20473;-58
2023/05/27 04:12:59;;;;;;;24.07;8.60;;;7.30;1.00;;;;;;5038446;28;20873;-58
2023/05/27 04:15:27;;;;;;;15.73;9.03;;;7.30;1.00;;;;;;5038133;28;20534;-58
2023/05/27 04:17:55;;;;;;;16.87;8.77;;;7.20;1.00;;;;;;5037986;28;20505;-58
2023/05/27 04:20:23;;;;;;;18.20;8.40;;;7.30;1.00;;;;;;5038344;28;20546;-59
2023/05/27 04:22:50;;;;;;;15.60;7.70;;;7.40;1.00;;;;;;5038303;28;20529;-56
2023/05/27 04:25:17;;;;;;;23.23;9.60;;;7.40;1.00;;;;;;5037665;28;20463;-58
2023/05/27 04:27:46;;;;;;;14.77;8.53;;;7.40;1.00;;;;;;5038246;28;20467;-57
2023/05/27 04:30:13;;;;;;;15.73;9.03;;;7.40;1.00;;;;;;5037251;28;20761;-57
2023/05/27 04:32:42;;;;;;;17.33;8.60;;;7.50;1.00;;;;;;5037511;28;20565;-58
2023/05/27 04:35:10;;;;;;;14.57;9.23;;;7.50;1.00;;;;;;5037660;28;20601;-57
2023/05/27 04:37:40;;;;;;;26.17;9.13;;;7.50;1.00;;;;;;5037814;28;20525;-57
2023/05/27 04:40:08;;;;;;;18.70;8.77;;;7.60;1.00;;;;;;5038170;28;20455;-57
2023/05/27 04:42:37;;;;;;;26.13;8.43;;;7.60;1.00;;;;;;5037228;28;20473;-58
2023/05/27 04:45:05;;;;;;;21.47;9.30;;;7.70;1.00;;;;;;5037629;28;20566;-58
2023/05/27 04:47:33;;;;;;;15.27;8.40;;;7.70;1.00;;;;;;5037821;28;20473;-58
2023/05/27 04:50:02;;;;;;;16.70;8.57;;;7.70;99.90;;;;;;5037584;28;20459;-58
2023/05/27 04:52:36;;;;;;;14.27;9.07;;;7.80;99.90;;;;;;5037326;28;20888;-58
2023/05/27 04:55:04;;;;;;;19.53;10.43;;;7.80;99.90;;;;;;5037249;28;20530;-58
2023/05/27 04:57:31;;;;;;;20.93;9.83;;;7.80;99.90;;;;;;5037112;28;20475;-57
2023/05/27 05:03:00;;;;;;;20.27;9.37;;;7.90;99.90;;;;;;5135178;27;20997;-59
2023/05/27 05:05:28;;;;;;;14.13;9.00;;;8.00;99.90;;;;;;5135475;28;20864;-59
2023/05/27 05:07:55;;;;;;;17.60;9.50;;;8.00;99.90;;;;;;5135110;27;20455;-59
2023/05/27 05:10:23;;;;;;;18.73;9.40;;;8.10;99.90;;;;;;5135408;28;20740;-58
2023/05/27 05:12:50;;;;;;;15.93;9.03;;;8.10;99.90;;;;;;5134898;28;20542;-59
2023/05/27 05:15:18;;;;;;;19.70;10.60;;;8.30;99.90;;;;;;5135432;28;20550;-58
2023/05/27 05:17:45;;;;;;;18.20;10.57;;;8.30;99.90;;;;;;5135768;28;20898;-58
2023/05/27 05:20:14;;;;;;;26.17;10.63;;;8.40;99.90;;;;;;5134816;28;20486;-59
2023/05/27 05:22:41;;;;;;;19.30;9.50;;;8.50;99.90;;;;;;5135063;28;20997;-58
2023/05/27 05:25:09;;;;;;;20.83;10.60;;;8.60;99.90;;;;;;5135370;28;20438;-58
2023/05/27 05:27:38;;;;;;;28.57;11.40;;;8.60;99.90;;;;;;5135515;27;20471;-58
2023/05/27 05:30:07;;;;;;;17.80;9.80;;;8.70;99.90;;;;;;5135329;28;20481;-58
2023/05/27 05:32:34;;;;;;;21.50;9.67;;;8.90;99.90;;;;;;5134843;28;20459;-59
2023/05/27 05:35:01;;;;;;;21.10;10.57;;;9.00;99.90;;;;;;5134960;28;20459;-57
2023/05/27 05:37:30;;;;;;;21.00;9.60;;;9.10;99.90;;;;;;5135052;28;20871;-59
2023/05/27 05:39:58;;;;;;;17.63;10.00;;;9.30;82.80;;;;;;5135024;28;20524;-59
2023/05/27 05:42:25;;;;;;;24.73;11.60;;;9.40;37.70;;;;;;5134457;27;20493;-58
2023/05/27 05:44:53;;;;;;;14.47;9.20;;;9.60;1.00;;;;;;5135073;28;20739;-59
2023/05/27 05:47:20;;;;;;;16.57;8.80;;;9.90;1.00;;;;;;5135272;28;20469;-59
2023/05/27 05:49:47;;;;;;;15.53;9.43;;;10.10;1.00;;;;;;5134651;28;20520;-58
2023/05/27 05:52:14;;;;;;;26.47;9.90;;;10.30;1.00;;;;;;5134680;27;20535;-58
2023/05/27 05:54:43;;;;;;;19.93;8.43;;;10.40;99.90;;;;;;5134300;27;20549;-59
2023/05/27 05:57:12;;;;;;;17.43;9.03;;;10.50;99.90;;;;;;5135155;27;20491;-58
2023/05/27 05:59:39;;;;;;;19.47;8.30;;;10.80;99.90;;;;;;5134723;27;20463;-59
2023/05/27 06:02:07;;;;;;;19.13;9.53;;;11.00;99.90;;;;;;5134131;27;20773;-59
2023/05/27 06:04:34;;;;;;;19.63;8.47;;;11.10;99.90;;;;;;5134690;27;20459;-59
2023/05/27 06:07:01;;;;;;;17.10;9.10;;;11.40;99.90;;;;;;5134773;27;20465;-59
2023/05/27 06:09:29;;;;;;;17.97;9.00;;;11.60;1.00;;;;;;5134486;27;20521;-59
2023/05/27 06:11:57;;;;;;;17.97;8.10;;;11.90;1.00;;;;;;5134237;27;20901;-58
2023/05/27 06:14:25;;;;;;;12.83;7.40;;;12.10;99.90;;;;;;5119520;28;20558;-59
2023/05/27 06:16:52;;;;;;;15.30;8.87;;;12.20;99.90;;;;;;5120342;28;20524;-59
2023/05/27 06:19:19;;;;;;;21.80;8.67;;;12.30;99.90;;;;;;5120634;28;20558;-58
2023/05/27 06:21:46;;;;;;;19.53;8.90;;;12.60;99.90;;;;;;5119202;28;20491;-59
2023/05/27 06:24:14;;;;;;;14.50;8.23;;;12.70;13.90;;;;;;5118880;28;20545;-59
2023/05/27 06:26:41;;;;;;;18.83;8.73;;;12.90;1.00;;;;;;5118141;28;20868;-59
2023/05/27 06:29:10;;;;;;;13.03;8.10;;;13.10;12.70;;;;;;5118866;28;20546;-59
2023/05/27 06:31:37;;;;;;;16.90;7.60;;;13.30;1.00;;;;;;5118165;28;20554;-60
2023/05/27 06:34:05;;;;;;;13.10;7.20;;;13.60;1.00;;;;;;5118855;28;20490;-60
2023/05/27 06:36:32;;;;;;;17.67;7.17;;;14.00;1.00;;;;;;5117787;28;20474;-60
2023/05/27 06:38:59;;;;;;;13.43;8.17;;;14.20;1.00;;;;;;5118247;28;20502;-59
2023/05/27 06:41:26;;;;;;;18.70;8.50;;;14.40;99.90;;;;;;5118597;28;20507;-59
2023/05/27 06:43:54;;;;;;;14.17;7.73;;;14.60;99.90;;;;;;5112547;28;20571;-59
2023/05/27 06:46:22;;;;;;;14.03;7.37;;;14.60;99.90;;;;;;5105919;28;20450;-59
2023/05/27 06:48:49;;;;;;;14.00;7.73;;;14.90;99.90;;;;;;5118106;28;20438;-59
2023/05/27 06:51:18;;;;;;;12.67;7.17;;;15.20;99.90;;;;;;5118618;28;20460;-59
2023/05/27 06:53:45;;;;;;;14.80;7.10;;;15.40;99.90;;;;;;5119868;28;20463;-59
2023/05/27 06:56:14;;;;;;;15.90;9.17;;;15.40;1.00;;;;;;5118740;28;20872;-59
2023/05/27 06:58:42;;;;;;;16.50;7.60;;;15.30;99.90;;;;;;5114954;28;20520;-60
2023/05/27 07:01:10;;;;;;;12.80;7.10;;;15.70;1.00;;;;;;5117639;28;20493;-59
2023/05/27 07:03:38;;;;;;;14.07;7.23;;;15.90;99.90;;;;;;5116857;28;20488;-60
2023/05/27 07:06:06;;;;;;;12.40;6.43;;;16.40;99.90;;;;;;5117267;28;20554;-60
2023/05/27 07:08:33;;;;;;;12.93;7.00;;;16.70;1.00;;;;;;5118257;28;20471;-60
2023/05/27 07:11:00;;;;;;;15.87;6.53;;;16.70;1.00;;;;;;5118140;28;20549;-60
2023/05/27 07:13:28;;;;;;;10.93;6.60;;;17.20;1.00;;;;;;5119692;27;20467;-59
2023/05/27 07:15:55;;;;;;;13.83;7.20;;;17.20;1.00;;;;;;5119424;28;20550;-59
2023/05/27 07:18:22;;;;;;;19.97;7.73;;;17.30;1.00;;;;;;5119516;28;20550;-60
2023/05/27 07:20:51;;;;;;;8.90;6.63;;;17.20;1.00;;;;;;5119164;28;21030;-60
2023/05/27 07:23:18;;;;;;;11.40;6.53;;;17.20;1.00;;;;;;5118812;28;20492;-62
2023/05/27 07:25:45;;;;;;;13.10;6.97;;;17.40;1.00;;;;;;5118191;28;20471;-60
2023/05/27 07:28:12;;;;;;;9.47;6.03;;;17.60;1.00;;;;;;5119462;28;20464;-59
2023/05/27 07:30:39;;;;;;;11.87;7.03;;;18.30;1.00;;;;;;5119207;28;20512;-60
2023/05/27 07:33:07;;;;;;;13.20;6.37;;;18.60;99.90;;;;;;5116416;28;20468;-60
2023/05/27 07:35:34;;;;;;;15.67;6.63;;;18.80;99.90;;;;;;5118910;28;20529;-61
2023/05/27 07:38:03;;;;;;;14.33;8.13;;;18.80;99.90;;;;;;5118917;28;20470;-60
2023/05/27 07:40:30;;;;;;;15.17;6.93;;;19.00;99.90;;;;;;5118447;28;20455;-60
2023/05/27 07:42:57;;;;;;;14.10;7.23;;;19.30;99.90;;;;;;5118216;28;20518;-60
2023/05/27 07:45:24;;;;;;;13.77;8.47;;;19.70;99.90;;;;;;5119081;28;20459;-59
2023/05/27 07:47:52;;;;;;;8.53;5.93;;;19.70;99.90;;;;;;5118846;28;20464;-60
2023/05/27 07:50:19;;;;;;;13.30;6.87;;;19.40;99.90;;;;;;5118841;28;20455;-59
2023/05/27 07:52:46;;;;;;;14.17;6.90;;;19.30;99.90;;;;;;5119125;28;20455;-61
2023/05/27 07:55:16;;;;;;;14.20;7.20;;;18.30;99.90;;;;;;5117794;28;20778;-61
2023/05/27 07:57:43;;;;;;;13.83;5.80;;;18.60;99.90;;;;;;5116968;28;20520;-61
2023/05/27 08:00:11;;;;;;;12.63;6.87;;;18.90;99.90;;;;;;5116361;28;20583;-61
2023/05/27 08:02:39;;;;;;;12.07;6.77;;;18.70;99.90;;;;;;5109620;28;20534;-61
2023/05/27 08:05:06;;;;;;;11.03;6.77;;;19.20;99.90;;;;;;5111773;28;20876;-61
2023/05/27 08:07:34;;;;;;;11.67;6.50;;;20.00;99.90;;;;;;5115897;28;20885;-60
2023/05/27 08:10:01;;;;;;;15.87;6.87;;;19.80;99.90;;;;;;5115421;28;20460;-61
2023/05/27 08:12:30;;;;;;;12.37;7.20;;;20.10;99.90;;;;;;5117734;28;20463;-61
2023/05/27 08:14:59;;;;;;;10.27;5.77;;;20.00;99.90;;;;;;5116373;28;20549;-60
2023/05/27 08:17:26;;;;;;;12.43;6.90;;;19.60;99.90;;;;;;5113361;28;20804;-61
2023/05/27 08:19:56;;;;;;;11.70;6.43;;;20.20;99.90;;;;;;5114758;28;20487;-62
2023/05/27 08:22:23;;;;;;;12.13;5.90;;;20.20;99.90;;;;;;5112147;28;20916;-61
2023/05/27 08:24:51;;;;;;;14.37;6.50;;;20.90;99.90;;;;;;5113002;28;20558;-60
2023/05/27 08:27:19;;;;;;;12.30;6.43;;;21.00;99.90;;;;;;5113329;28;20467;-60
2023/05/27 08:29:47;;;;;;;14.37;6.63;;;21.50;99.90;;;;;;5115719;28;20549;-60
2023/05/27 08:32:15;;;;;;;9.43;6.60;;;21.90;99.90;;;;;;5116988;28;20455;-62
2023/05/27 08:34:42;;;;;;;10.80;6.50;;;21.80;8.40;;;;;;5117996;28;20459;-60
2023/05/27 08:37:20;;;;;;;14.83;5.90;;;21.80;1.00;;;;;;5117068;28;20468;-61
2023/05/27 08:39:47;;;;;;;11.47;6.70;;;21.90;1.00;;;;;;5117662;28;20463;-60
2023/05/27 08:42:15;;;;;;;10.73;6.53;;;22.10;1.00;;;;;;5117861;28;20614;-60
2023/05/27 08:44:42;;;;;;;11.07;6.90;;;22.20;1.00;;;;;;5117830;28;20952;-59
2023/05/27 08:47:11;;;;;;;10.27;6.03;;;22.40;1.00;;;;;;5117117;28;20456;-61
2023/05/27 08:49:38;;;;;;;10.97;6.50;;;22.30;1.00;;;;;;5118066;28;20892;-62
2023/05/27 08:52:10;;;;;;;13.00;6.50;;;21.80;1.00;;;;;;5117728;28;20456;-58
2023/05/27 08:54:38;;;;;;;11.97;6.40;;;22.00;1.00;;;;;;5117852;28;20872;-63
2023/05/27 08:57:08;;;;;;;9.60;5.80;;;22.40;1.00;;;;;;5117169;28;20467;-62
2023/05/27 08:59:37;;;;;;;12.07;6.80;;;22.20;1.00;;;;;;5117741;28;20849;-59
2023/05/27 09:02:09;;;;;;;12.93;6.63;;;21.80;1.00;;;;;;5116653;28;20833;-61
2023/05/27 09:04:40;;;;;;;14.13;7.00;;;21.90;1.00;;;;;;5117745;28;20463;-60
2023/05/27 09:07:07;;;;;;;12.00;6.17;;;21.60;1.00;;;;;;5117648;28;20888;-62
2023/05/27 09:09:35;;;;;;;11.17;6.43;;;22.00;1.00;;;;;;5117654;28;20459;-60
2023/05/27 09:12:04;;;;;;;12.40;6.17;;;22.60;1.00;;;;;;5116724;28;20807;-61
2023/05/27 09:14:31;;;;;;;12.83;6.93;;;22.70;1.00;;;;;;5116599;28;20456;-60
2023/05/27 09:17:05;;;;;;;13.43;6.40;;;22.80;1.00;;;;;;5117244;28;20466;-60
2023/05/27 09:19:32;;;;;;;11.17;6.13;;;23.00;1.00;;;;;;5117417;28;20473;-60
2023/05/27 09:22:01;;;;;;;10.43;6.20;;;22.00;1.00;;;;;;5117160;28;20880;-61
2023/05/27 09:24:29;;;;;;;8.90;6.33;;;22.30;1.00;;;;;;5117367;28;20516;-62
2023/05/27 09:26:58;;;;;;;11.30;6.17;;;22.60;1.00;;;;;;5116901;28;20959;-62
2023/05/27 09:29:25;;;;;;;9.13;6.27;;;22.80;1.00;;;;;;5115897;28;20459;-61
2023/05/27 09:31:55;;;;;;;10.07;6.00;;;22.00;1.00;;;;;;5117120;28;20463;-60
2023/05/27 09:34:23;;;;;;;9.10;6.43;;;22.20;1.00;;;;;;5117652;28;20467;-60
2023/05/27 09:36:51;;;;;;;11.77;7.23;;;23.20;1.00;;;;;;5117005;28;20941;-60
2023/05/27 09:39:23;;;;;;;10.50;6.10;;;23.80;1.00;;;;;;5115426;28;20495;-62
2023/05/27 09:41:55;;;;;;;15.73;7.00;;;23.90;1.00;;;;;;5115622;28;20562;-60
2023/05/27 09:44:25;;;;;;;12.30;7.83;;;23.80;1.00;;;;;;5115556;28;20550;-60
2023/05/27 09:46:54;;;;;;;11.17;6.73;;;24.10;1.00;;;;;;5115045;28;20460;-60
2023/05/27 09:49:23;;;;;;;12.43;6.47;;;24.00;1.00;;;;;;5118835;28;20942;-59
2023/05/27 09:51:51;;;;;;;8.23;6.23;;;22.60;1.00;;;;;;5118916;28;20459;-61
2023/05/27 09:54:21;;;;;;;9.70;6.20;;;23.60;1.00;;;;;;5120464;28;20549;-60
2023/05/27 09:56:50;;;;;;;15.57;7.00;;;23.00;1.00;;;;;;5120652;28;20860;-59
2023/05/27 09:59:18;;;;;;;10.60;6.30;;;23.40;1.00;;;;;;5118302;28;20802;-59
2023/05/27 10:01:46;;;;;;;10.37;7.17;;;23.40;1.00;;;;;;5119822;28;20579;-61
2023/05/27 10:04:16;;;;;;;8.87;6.20;;;24.20;1.00;;;;;;5117026;28;20506;-59
2023/05/27 10:06:45;;;;;;;9.07;6.43;;;24.10;99.90;;;;;;5120714;28;20467;-60
2023/05/27 10:09:15;;;;;;;9.30;5.97;;;24.60;1.00;;;;;;5117373;28;20463;-60
2023/05/27 10:11:45;;;;;;;9.13;6.50;;;24.60;99.90;;;;;;5116479;28;20528;-59
2023/05/27 10:14:13;;;;;;;9.13;6.03;;;24.20;99.90;;;;;;5120999;28;20460;-60
2023/05/27 10:16:40;;;;;;;10.70;7.53;;;24.70;99.90;;;;;;5114318;28;20483;-59
2023/05/27 10:19:17;;;;;;;9.70;6.20;;;24.90;99.90;;;;;;5115930;28;20908;-60
2023/05/27 10:21:46;;;;;;;9.03;6.83;;;25.30;99.90;;;;;;5118465;28;20518;-60
2023/05/27 10:24:13;;;;;;;11.00;6.70;;;25.80;99.90;;;;;;5118908;28;20928;-61
2023/05/27 10:26:43;;;;;;;9.93;6.50;;;25.20;99.90;;;;;;5115332;28;20479;-61
2023/05/27 10:29:12;;;;;;;10.13;6.13;;;24.00;99.90;;;;;;5116012;28;20966;-60
2023/05/27 10:31:46;;;;;;;11.60;6.47;;;24.30;99.90;;;;;;5118665;28;20467;-60
2023/05/27 10:34:13;;;;;;;6.83;6.03;;;25.20;99.90;;;;;;5119282;28;20485;-59
2023/05/27 10:36:41;;;;;;;10.20;6.57;;;25.80;99.90;;;;;;5120260;28;20517;-58
2023/05/27 10:39:15;;;;;;;11.87;7.07;;;25.60;99.90;;;;;;5119553;28;20516;-63
2023/05/27 10:41:49;;;;;;;10.30;6.33;;;25.60;99.90;;;;;;5119683;28;20939;-61
2023/05/27 10:44:28;;;;;;;11.13;6.57;;;25.00;99.90;;;;;;5120011;28;20987;-61
2023/05/27 10:47:01;;;;;;;10.53;6.40;;;25.50;99.90;;;;;;5119847;28;20459;-58
2023/05/27 10:49:35;;;;;;;8.90;6.63;;;25.70;99.90;;;;;;5119324;28;20517;-60
2023/05/27 10:52:10;;;;;;;14.47;7.83;;;25.70;99.90;;;;;;5120064;28;20466;-63
2023/05/27 10:54:38;;;;;;;10.63;6.80;;;25.00;99.90;;;;;;5119917;28;20458;-61
2023/05/27 10:57:08;;;;;;;8.77;6.27;;;24.80;99.90;;;;;;5120090;28;20448;-62
2023/05/27 10:59:42;;;;;;;8.90;6.60;;;25.40;99.90;;;;;;5119624;28;20498;-60
2023/05/27 11:02:09;;;;;;;10.47;6.57;;;25.80;99.90;;;;;;5119049;28;20528;-59
2023/05/27 11:04:40;;;;;;;6.30;5.70;;;25.70;99.90;;;;;;5119558;28;20498;-59
2023/05/27 11:07:08;;;;;;;10.30;6.53;;;26.30;99.90;;;;;;5119198;27;20464;-59
2023/05/27 11:09:45;;;;;;;12.20;7.03;;;25.90;99.90;;;;;;5117546;28;20878;-60
2023/05/27 11:12:17;;;;;;;11.30;6.80;;;26.40;99.90;;;;;;5118221;28;20528;-59
2023/05/27 11:14:44;;;;;;;11.47;7.03;;;27.00;99.90;;;;;;5117004;28;20880;-59
2023/05/27 11:17:11;;;;;;;10.20;7.03;;;27.30;99.90;;;;;;5118346;28;20542;-61
2023/05/27 11:19:41;;;;;;;9.53;6.53;;;25.90;99.90;;;;;;5118779;28;20455;-59
2023/05/27 11:22:08;;;;;;;9.10;6.60;;;25.00;99.90;;;;;;5118070;28;20892;-60
2023/05/27 11:24:37;;;;;;;8.00;6.40;;;26.00;99.90;;;;;;5118141;28;20591;-61
2023/05/27 11:27:10;;;;;;;8.67;6.50;;;26.40;99.90;;;;;;5117863;28;20542;-58
2023/05/27 11:29:39;;;;;;;10.63;6.90;;;26.80;99.90;;;;;;5116488;28;20479;-61
2023/05/27 11:32:09;;;;;;;10.80;7.10;;;25.80;99.90;;;;;;5117300;28;20470;-60
2023/05/27 11:34:37;;;;;;;8.40;6.47;;;25.80;99.90;;;;;;5117748;28;20819;-61
2023/05/27 11:37:06;;;;;;;11.90;6.80;;;26.00;99.90;;;;;;5117304;28;20473;-59
2023/05/27 11:39:36;;;;;;;11.50;7.10;;;26.40;99.90;;;;;;5116775;28;20460;-60
2023/05/27 11:42:07;;;;;;;10.67;7.43;;;26.50;99.90;;;;;;5115819;28;20463;-61
2023/05/27 11:44:35;;;;;;;11.07;6.83;;;25.60;99.90;;;;;;5116760;28;20782;-59
2023/05/27 11:47:04;;;;;;;10.43;7.20;;;26.10;99.90;;;;;;5116305;28;20460;-61
2023/05/27 11:49:31;;;;;;;14.33;7.50;;;26.70;99.90;;;;;;5117343;27;20890;-58
2023/05/27 11:51:59;;;;;;;11.33;6.63;;;26.10;99.90;;;;;;5117093;28;20459;-59
2023/05/27 11:54:27;;;;;;;10.10;6.33;;;26.40;99.90;;;;;;5116675;28;20467;-60
2023/05/27 11:56:56;;;;;;;11.37;7.67;;;26.90;99.90;;;;;;5116664;28;20506;-60
2023/05/27 11:59:24;;;;;;;14.13;6.97;;;26.50;99.90;;;;;;5116621;28;20496;-59
2023/05/27 12:01:53;;;;;;;12.40;7.50;;;26.40;99.90;;;;;;5116062;28;21011;-60
2023/05/27 12:04:22;;;;;;;8.43;7.30;;;26.40;99.90;;;;;;5116953;28;20491;-60
2023/05/27 12:06:49;;;;;;;8.90;6.57;;;27.10;99.90;;;;;;5116510;28;20558;-59
2023/05/27 12:09:16;;;;;;;13.40;7.33;;;25.90;99.90;;;;;;5116892;28;20516;-62
2023/05/27 12:11:44;;;;;;;11.40;7.00;;;26.80;99.90;;;;;;5115972;28;20554;-61
2023/05/27 12:14:13;;;;;;;10.67;7.73;;;26.90;99.90;;;;;;5116429;28;20550;-61
2023/05/27 12:16:41;;;;;;;9.43;6.90;;;26.00;99.90;;;;;;5116505;28;20467;-61
2023/05/27 12:19:09;;;;;;;10.50;7.57;;;25.40;99.90;;;;;;5116665;28;20974;-59
2023/05/27 12:21:41;;;;;;;11.47;6.53;;;26.20;99.90;;;;;;5116569;28;20463;-61
2023/05/27 12:24:08;;;;;;;8.40;6.90;;;26.70;99.90;;;;;;5114877;28;20480;-60
2023/05/27 12:26:37;;;;;;;10.47;7.40;;;26.60;99.90;;;;;;5113486;28;20464;-60
2023/05/27 12:29:04;;;;;;;9.77;6.43;;;27.30;99.90;;;;;;5116421;28;20459;-60
2023/05/27 12:31:31;;;;;;;10.20;6.73;;;27.10;99.90;;;;;;5118049;28;20906;-59
2023/05/27 12:33:58;;;;;;;10.03;7.27;;;26.90;99.90;;;;;;5117975;28;20462;-59
2023/05/27 12:36:25;;;;;;;11.40;7.53;;;27.40;99.90;;;;;;5117837;28;20966;-60
2023/05/27 12:38:54;;;;;;;13.47;7.50;;;27.60;99.90;;;;;;5117620;27;20471;-61
2023/05/27 12:41:21;;;;;;;9.27;6.77;;;27.30;99.90;;;;;;5113666;28;20458;-58
2023/05/27 12:43:48;;;;;;;12.20;7.63;;;27.20;99.90;;;;;;5116503;28;20529;-59
2023/05/27 12:46:15;;;;;;;9.23;6.13;;;27.50;99.90;;;;;;5115983;28;20458;-60
2023/05/27 12:48:42;;;;;;;12.27;6.60;;;27.60;99.90;;;;;;5116264;28;20506;-60
2023/05/27 12:51:09;;;;;;;9.00;6.73;;;27.50;99.90;;;;;;5116209;28;20885;-59
2023/05/27 12:53:37;;;;;;;8.67;5.90;;;27.80;99.90;;;;;;5116312;28;20859;-60